sensor_id;sensor_type;location;lat;lon;timestamp;P1;durP1;ratioP1;P2;durP2;ratioP2
22632;SDS011;11483;55.828;37.488;2023-05-29T00:00:06;6.15;;;2.95;;
22632;SDS011;11483;55.828;37.488;2023-05-29T00:02:34;10.35;;;3.08;;
22632;SDS011;11483;55.828;37.488;2023-05-29T00:05:12;5.03;;;2.70;;
22632;SDS011;11483;55.828;37.488;2023-05-29T00:07:39;7.82;;;2.90;;
22632;SDS011;11483;55.828;37.488;2023-05-29T00:10:06;7.05;;;2.50;;
22632;SDS011;11483;55.828;37.488;2023-05-29T00:12:41;5.25;;;2.70;;
22632;SDS011;11483;55.828;37.488;2023-05-29T00:15:27;4.75;;;2.60;;
22632;SDS011;11483;55.828;37.488;2023-05-29T00:17:55;9.52;;;3.15;;
22632;SDS011;11483;55.828;37.488;2023-05-29T00:20:42;5.32;;;2.70;;
22632;SDS011;11483;55.828;37.488;2023-05-29T00:23:08;8.88;;;3.00;;
22632;SDS011;11483;55.828;37.488;2023-05-29T00:25:35;5.07;;;2.70;;
22632;SDS011;11483;55.828;37.488;2023-05-29T00:28:01;5.43;;;2.70;;
22632;SDS011;11483;55.828;37.488;2023-05-29T00:30:26;12.82;;;2.90;;
22632;SDS011;11483;55.828;37.488;2023-05-29T00:32:53;7.82;;;2.50;;
22632;SDS011;11483;55.828;37.488;2023-05-29T00:35:39;10.20;;;2.42;;
22632;SDS011;11483;55.828;37.488;2023-05-29T00:38:05;5.53;;;2.65;;
22632;SDS011;11483;55.828;37.488;2023-05-29T00:40:31;5.82;;;3.10;;
22632;SDS011;11483;55.828;37.488;2023-05-29T00:42:57;4.72;;;2.33;;
22632;SDS011;11483;55.828;37.488;2023-05-29T00:45:22;3.80;;;2.38;;
22632;SDS011;11483;55.828;37.488;2023-05-29T00:47:48;11.75;;;2.92;;
22632;SDS011;11483;55.828;37.488;2023-05-29T00:50:14;7.13;;;2.50;;
22632;SDS011;11483;55.828;37.488;2023-05-29T00:52:41;10.52;;;2.80;;
22632;SDS011;11483;55.828;37.488;2023-05-29T00:55:08;3.67;;;2.50;;
22632;SDS011;11483;55.828;37.488;2023-05-29T00:57:35;8.70;;;2.75;;
22632;SDS011;11483;55.828;37.488;2023-05-29T01:00:31;4.30;;;2.60;;
22632;SDS011;11483;55.828;37.488;2023-05-29T01:02:58;7.60;;;2.65;;
22632;SDS011;11483;55.828;37.488;2023-05-29T01:05:28;6.03;;;2.75;;
22632;SDS011;11483;55.828;37.488;2023-05-29T01:08:01;4.57;;;2.30;;
22632;SDS011;11483;55.828;37.488;2023-05-29T01:10:47;5.30;;;2.65;;
22632;SDS011;11483;55.828;37.488;2023-05-29T01:13:19;4.45;;;2.55;;
22632;SDS011;11483;55.828;37.488;2023-05-29T01:16:09;7.15;;;2.20;;
22632;SDS011;11483;55.828;37.488;2023-05-29T01:24:58;6.90;;;2.38;;
22632;SDS011;11483;55.828;37.488;2023-05-29T01:27:36;6.32;;;3.03;;
22632;SDS011;11483;55.828;37.488;2023-05-29T01:30:04;4.63;;;2.40;;
22632;SDS011;11483;55.828;37.488;2023-05-29T01:32:33;5.45;;;2.78;;
22632;SDS011;11483;55.828;37.488;2023-05-29T01:35:03;8.07;;;2.38;;
22632;SDS011;11483;55.828;37.488;2023-05-29T01:37:50;5.38;;;2.63;;
22632;SDS011;11483;55.828;37.488;2023-05-29T01:40:16;6.88;;;2.67;;
22632;SDS011;11483;55.828;37.488;2023-05-29T01:42:42;8.07;;;2.78;;
22632;SDS011;11483;55.828;37.488;2023-05-29T01:45:41;5.57;;;2.83;;
22632;SDS011;11483;55.828;37.488;2023-05-29T01:48:28;5.30;;;2.40;;
22632;SDS011;11483;55.828;37.488;2023-05-29T01:50:55;13.20;;;3.10;;
22632;SDS011;11483;55.828;37.488;2023-05-29T01:53:22;11.23;;;2.90;;
22632;SDS011;11483;55.828;37.488;2023-05-29T01:55:49;11.40;;;3.20;;
22632;SDS011;11483;55.828;37.488;2023-05-29T02:01:26;9.00;;;3.50;;
22632;SDS011;11483;55.828;37.488;2023-05-29T02:04:12;6.63;;;2.72;;
22632;SDS011;11483;55.828;37.488;2023-05-29T02:06:38;5.13;;;2.45;;
22632;SDS011;11483;55.828;37.488;2023-05-29T02:09:05;4.82;;;2.60;;
22632;SDS011;11483;55.828;37.488;2023-05-29T02:11:31;6.10;;;2.85;;
22632;SDS011;11483;55.828;37.488;2023-05-29T02:13:57;3.45;;;2.55;;
22632;SDS011;11483;55.828;37.488;2023-05-29T02:16:23;8.75;;;2.50;;
22632;SDS011;11483;55.828;37.488;2023-05-29T02:18:49;6.07;;;2.45;;
22632;SDS011;11483;55.828;37.488;2023-05-29T02:21:16;10.60;;;2.83;;
22632;SDS011;11483;55.828;37.488;2023-05-29T02:23:42;4.50;;;2.28;;
22632;SDS011;11483;55.828;37.488;2023-05-29T02:26:08;10.52;;;2.60;;
22632;SDS011;11483;55.828;37.488;2023-05-29T02:28:34;11.57;;;2.60;;
22632;SDS011;11483;55.828;37.488;2023-05-29T02:31:00;6.38;;;2.45;;
22632;SDS011;11483;55.828;37.488;2023-05-29T02:34:00;3.28;;;2.15;;
22632;SDS011;11483;55.828;37.488;2023-05-29T02:36:25;16.75;;;3.00;;
22632;SDS011;11483;55.828;37.488;2023-05-29T02:38:53;6.78;;;2.58;;
22632;SDS011;11483;55.828;37.488;2023-05-29T02:41:18;5.68;;;2.70;;
22632;SDS011;11483;55.828;37.488;2023-05-29T02:43:44;6.22;;;2.67;;
22632;SDS011;11483;55.828;37.488;2023-05-29T02:46:10;9.52;;;3.20;;
22632;SDS011;11483;55.828;37.488;2023-05-29T02:48:36;6.13;;;3.05;;
22632;SDS011;11483;55.828;37.488;2023-05-29T02:51:02;8.88;;;2.83;;
22632;SDS011;11483;55.828;37.488;2023-05-29T02:53:27;5.10;;;2.53;;
22632;SDS011;11483;55.828;37.488;2023-05-29T02:55:53;9.10;;;2.97;;
22632;SDS011;11483;55.828;37.488;2023-05-29T02:58:41;14.60;;;3.40;;
22632;SDS011;11483;55.828;37.488;2023-05-29T03:01:07;8.90;;;3.13;;
22632;SDS011;11483;55.828;37.488;2023-05-29T03:03:34;6.18;;;3.17;;
22632;SDS011;11483;55.828;37.488;2023-05-29T03:05:59;8.48;;;2.95;;
22632;SDS011;11483;55.828;37.488;2023-05-29T03:08:26;10.70;;;3.30;;
22632;SDS011;11483;55.828;37.488;2023-05-29T03:10:53;8.05;;;3.13;;
22632;SDS011;11483;55.828;37.488;2023-05-29T03:13:20;11.05;;;2.47;;
22632;SDS011;11483;55.828;37.488;2023-05-29T03:15:47;5.88;;;2.80;;
22632;SDS011;11483;55.828;37.488;2023-05-29T03:18:13;12.07;;;2.92;;
22632;SDS011;11483;55.828;37.488;2023-05-29T03:20:38;8.65;;;3.25;;
22632;SDS011;11483;55.828;37.488;2023-05-29T03:23:04;14.30;;;3.00;;
22632;SDS011;11483;55.828;37.488;2023-05-29T03:26:09;11.55;;;2.72;;
22632;SDS011;11483;55.828;37.488;2023-05-29T03:28:35;5.85;;;2.50;;
22632;SDS011;11483;55.828;37.488;2023-05-29T03:31:01;12.75;;;2.97;;
22632;SDS011;11483;55.828;37.488;2023-05-29T03:33:27;7.18;;;2.95;;
22632;SDS011;11483;55.828;37.488;2023-05-29T03:35:53;4.45;;;2.40;;
22632;SDS011;11483;55.828;37.488;2023-05-29T03:38:20;8.93;;;3.00;;
22632;SDS011;11483;55.828;37.488;2023-05-29T03:40:46;6.78;;;2.58;;
22632;SDS011;11483;55.828;37.488;2023-05-29T03:43:12;6.47;;;2.70;;
22632;SDS011;11483;55.828;37.488;2023-05-29T03:45:38;5.30;;;2.60;;
22632;SDS011;11483;55.828;37.488;2023-05-29T03:48:36;6.57;;;3.03;;
22632;SDS011;11483;55.828;37.488;2023-05-29T03:51:02;6.40;;;2.47;;
22632;SDS011;11483;55.828;37.488;2023-05-29T03:56:13;4.07;;;2.53;;
22632;SDS011;11483;55.828;37.488;2023-05-29T03:58:38;6.55;;;2.25;;
22632;SDS011;11483;55.828;37.488;2023-05-29T04:01:04;8.13;;;2.97;;
22632;SDS011;11483;55.828;37.488;2023-05-29T04:03:31;6.93;;;2.58;;
22632;SDS011;11483;55.828;37.488;2023-05-29T04:05:57;6.70;;;2.47;;
22632;SDS011;11483;55.828;37.488;2023-05-29T04:08:23;10.52;;;2.80;;
22632;SDS011;11483;55.828;37.488;2023-05-29T04:10:49;6.90;;;2.50;;
22632;SDS011;11483;55.828;37.488;2023-05-29T04:13:18;10.45;;;2.88;;
22632;SDS011;11483;55.828;37.488;2023-05-29T04:15:45;4.90;;;2.60;;
22632;SDS011;11483;55.828;37.488;2023-05-29T04:18:11;5.68;;;1.88;;
22632;SDS011;11483;55.828;37.488;2023-05-29T04:20:37;13.25;;;2.38;;
22632;SDS011;11483;55.828;37.488;2023-05-29T04:23:03;8.15;;;2.92;;
22632;SDS011;11483;55.828;37.488;2023-05-29T04:25:29;2.60;;;1.85;;
22632;SDS011;11483;55.828;37.488;2023-05-29T04:27:54;6.57;;;2.60;;
22632;SDS011;11483;55.828;37.488;2023-05-29T04:30:20;11.27;;;3.08;;
22632;SDS011;11483;55.828;37.488;2023-05-29T04:32:46;10.80;;;2.53;;
22632;SDS011;11483;55.828;37.488;2023-05-29T04:35:13;4.57;;;2.25;;
22632;SDS011;11483;55.828;37.488;2023-05-29T04:37:39;3.47;;;2.17;;
22632;SDS011;11483;55.828;37.488;2023-05-29T04:40:05;5.75;;;2.25;;
22632;SDS011;11483;55.828;37.488;2023-05-29T04:42:36;10.38;;;2.75;;
22632;SDS011;11483;55.828;37.488;2023-05-29T04:45:21;9.35;;;2.42;;
22632;SDS011;11483;55.828;37.488;2023-05-29T04:47:47;9.65;;;2.42;;
22632;SDS011;11483;55.828;37.488;2023-05-29T04:50:15;4.60;;;2.42;;
22632;SDS011;11483;55.828;37.488;2023-05-29T04:52:42;6.05;;;2.30;;
22632;SDS011;11483;55.828;37.488;2023-05-29T04:55:09;4.25;;;2.28;;
22632;SDS011;11483;55.828;37.488;2023-05-29T04:57:38;3.63;;;2.40;;
22632;SDS011;11483;55.828;37.488;2023-05-29T05:00:04;6.80;;;2.75;;
22632;SDS011;11483;55.828;37.488;2023-05-29T05:02:39;7.63;;;2.17;;
22632;SDS011;11483;55.828;37.488;2023-05-29T05:05:08;9.02;;;2.20;;
22632;SDS011;11483;55.828;37.488;2023-05-29T05:07:34;8.05;;;2.33;;
22632;SDS011;11483;55.828;37.488;2023-05-29T05:10:01;3.80;;;2.10;;
22632;SDS011;11483;55.828;37.488;2023-05-29T05:12:27;7.93;;;2.42;;
22632;SDS011;11483;55.828;37.488;2023-05-29T05:14:53;5.40;;;2.25;;
22632;SDS011;11483;55.828;37.488;2023-05-29T05:17:19;9.52;;;2.47;;
22632;SDS011;11483;55.828;37.488;2023-05-29T05:19:45;4.82;;;2.20;;
22632;SDS011;11483;55.828;37.488;2023-05-29T05:22:11;9.45;;;2.40;;
22632;SDS011;11483;55.828;37.488;2023-05-29T05:24:37;4.35;;;2.47;;
22632;SDS011;11483;55.828;37.488;2023-05-29T05:27:03;4.70;;;2.10;;
22632;SDS011;11483;55.828;37.488;2023-05-29T05:29:30;4.90;;;2.45;;
22632;SDS011;11483;55.828;37.488;2023-05-29T05:31:56;8.35;;;2.13;;
22632;SDS011;11483;55.828;37.488;2023-05-29T05:34:22;5.50;;;2.28;;
22632;SDS011;11483;55.828;37.488;2023-05-29T05:36:48;8.15;;;2.58;;
22632;SDS011;11483;55.828;37.488;2023-05-29T05:39:14;6.10;;;2.15;;
22632;SDS011;11483;55.828;37.488;2023-05-29T05:41:40;3.58;;;2.08;;
22632;SDS011;11483;55.828;37.488;2023-05-29T05:44:06;3.90;;;2.22;;
22632;SDS011;11483;55.828;37.488;2023-05-29T05:46:32;5.03;;;2.17;;
22632;SDS011;11483;55.828;37.488;2023-05-29T05:48:57;8.02;;;2.28;;
22632;SDS011;11483;55.828;37.488;2023-05-29T05:51:24;7.55;;;2.20;;
22632;SDS011;11483;55.828;37.488;2023-05-29T05:53:50;8.30;;;1.65;;
22632;SDS011;11483;55.828;37.488;2023-05-29T05:56:16;3.38;;;1.70;;
22632;SDS011;11483;55.828;37.488;2023-05-29T05:58:42;3.95;;;1.95;;
22632;SDS011;11483;55.828;37.488;2023-05-29T06:01:07;4.10;;;2.08;;
22632;SDS011;11483;55.828;37.488;2023-05-29T06:03:34;5.53;;;1.95;;
22632;SDS011;11483;55.828;37.488;2023-05-29T06:06:00;5.43;;;1.80;;
22632;SDS011;11483;55.828;37.488;2023-05-29T06:08:26;7.60;;;1.80;;
22632;SDS011;11483;55.828;37.488;2023-05-29T06:10:52;4.30;;;1.77;;
22632;SDS011;11483;55.828;37.488;2023-05-29T06:13:18;9.80;;;2.00;;
22632;SDS011;11483;55.828;37.488;2023-05-29T06:15:44;6.03;;;2.13;;
22632;SDS011;11483;55.828;37.488;2023-05-29T06:18:10;4.70;;;1.80;;
22632;SDS011;11483;55.828;37.488;2023-05-29T06:20:36;5.90;;;1.58;;
22632;SDS011;11483;55.828;37.488;2023-05-29T06:23:02;3.42;;;1.45;;
22632;SDS011;11483;55.828;37.488;2023-05-29T06:25:29;5.45;;;1.50;;
22632;SDS011;11483;55.828;37.488;2023-05-29T06:28:01;3.03;;;1.67;;
22632;SDS011;11483;55.828;37.488;2023-05-29T06:30:28;2.58;;;1.33;;
22632;SDS011;11483;55.828;37.488;2023-05-29T06:32:54;8.02;;;1.10;;
22632;SDS011;11483;55.828;37.488;2023-05-29T06:35:20;2.25;;;1.20;;
22632;SDS011;11483;55.828;37.488;2023-05-29T06:37:46;7.32;;;1.38;;
22632;SDS011;11483;55.828;37.488;2023-05-29T06:40:12;4.95;;;1.20;;
22632;SDS011;11483;55.828;37.488;2023-05-29T06:42:40;3.42;;;1.23;;
22632;SDS011;11483;55.828;37.488;2023-05-29T06:45:10;2.42;;;1.15;;
22632;SDS011;11483;55.828;37.488;2023-05-29T06:48:06;5.88;;;1.20;;
22632;SDS011;11483;55.828;37.488;2023-05-29T06:50:32;1.48;;;1.02;;
22632;SDS011;11483;55.828;37.488;2023-05-29T06:53:16;1.98;;;1.10;;
22632;SDS011;11483;55.828;37.488;2023-05-29T06:55:42;1.77;;;1.00;;
22632;SDS011;11483;55.828;37.488;2023-05-29T06:58:08;2.05;;;1.08;;
22632;SDS011;11483;55.828;37.488;2023-05-29T07:00:34;6.82;;;1.00;;
22632;SDS011;11483;55.828;37.488;2023-05-29T07:03:38;1.50;;;1.05;;
22632;SDS011;11483;55.828;37.488;2023-05-29T07:06:05;5.60;;;1.27;;
22632;SDS011;11483;55.828;37.488;2023-05-29T07:08:31;1.60;;;1.00;;
22632;SDS011;11483;55.828;37.488;2023-05-29T07:10:57;3.33;;;1.02;;
22632;SDS011;11483;55.828;37.488;2023-05-29T07:13:23;3.67;;;0.90;;
22632;SDS011;11483;55.828;37.488;2023-05-29T07:15:51;4.80;;;1.10;;
22632;SDS011;11483;55.828;37.488;2023-05-29T07:18:17;4.25;;;0.90;;
22632;SDS011;11483;55.828;37.488;2023-05-29T07:20:43;2.25;;;0.90;;
22632;SDS011;11483;55.828;37.488;2023-05-29T07:23:09;1.60;;;0.95;;
22632;SDS011;11483;55.828;37.488;2023-05-29T07:25:35;2.92;;;1.00;;
22632;SDS011;11483;55.828;37.488;2023-05-29T07:28:01;4.78;;;1.00;;
22632;SDS011;11483;55.828;37.488;2023-05-29T07:30:27;1.00;;;0.90;;
22632;SDS011;11483;55.828;37.488;2023-05-29T07:32:53;2.85;;;1.10;;
22632;SDS011;11483;55.828;37.488;2023-05-29T07:35:19;1.50;;;1.15;;
22632;SDS011;11483;55.828;37.488;2023-05-29T07:37:45;2.58;;;1.20;;
22632;SDS011;11483;55.828;37.488;2023-05-29T07:40:13;1.33;;;1.20;;
22632;SDS011;11483;55.828;37.488;2023-05-29T07:42:39;8.80;;;1.10;;
22632;SDS011;11483;55.828;37.488;2023-05-29T07:45:05;1.17;;;1.05;;
22632;SDS011;11483;55.828;37.488;2023-05-29T07:47:31;3.08;;;1.00;;
22632;SDS011;11483;55.828;37.488;2023-05-29T07:49:57;2.88;;;1.25;;
22632;SDS011;11483;55.828;37.488;2023-05-29T07:52:24;1.15;;;0.80;;
22632;SDS011;11483;55.828;37.488;2023-05-29T07:54:49;6.13;;;1.10;;
22632;SDS011;11483;55.828;37.488;2023-05-29T07:57:16;6.13;;;1.50;;
22632;SDS011;11483;55.828;37.488;2023-05-29T07:59:42;1.50;;;1.23;;
22632;SDS011;11483;55.828;37.488;2023-05-29T08:02:08;3.50;;;1.23;;
22632;SDS011;11483;55.828;37.488;2023-05-29T08:04:34;1.67;;;1.00;;
22632;SDS011;11483;55.828;37.488;2023-05-29T08:07:01;1.48;;;1.13;;
22632;SDS011;11483;55.828;37.488;2023-05-29T08:09:31;2.53;;;1.15;;
22632;SDS011;11483;55.828;37.488;2023-05-29T08:11:57;2.92;;;1.20;;
22632;SDS011;11483;55.828;37.488;2023-05-29T08:14:24;2.58;;;1.27;;
22632;SDS011;11483;55.828;37.488;2023-05-29T08:16:51;5.05;;;1.27;;
22632;SDS011;11483;55.828;37.488;2023-05-29T08:19:17;4.22;;;1.30;;
22632;SDS011;11483;55.828;37.488;2023-05-29T08:21:43;2.83;;;1.15;;
22632;SDS011;11483;55.828;37.488;2023-05-29T08:24:08;3.53;;;1.25;;
22632;SDS011;11483;55.828;37.488;2023-05-29T08:26:34;4.03;;;1.25;;
22632;SDS011;11483;55.828;37.488;2023-05-29T08:29:01;2.53;;;1.30;;
22632;SDS011;11483;55.828;37.488;2023-05-29T08:31:27;1.33;;;0.88;;
22632;SDS011;11483;55.828;37.488;2023-05-29T08:33:53;7.05;;;1.23;;
22632;SDS011;11483;55.828;37.488;2023-05-29T08:36:19;4.20;;;1.35;;
22632;SDS011;11483;55.828;37.488;2023-05-29T08:38:47;1.10;;;1.00;;
22632;SDS011;11483;55.828;37.488;2023-05-29T08:44:14;2.55;;;1.27;;
22632;SDS011;11483;55.828;37.488;2023-05-29T08:46:46;1.90;;;1.00;;
22632;SDS011;11483;55.828;37.488;2023-05-29T08:49:15;2.08;;;1.00;;
22632;SDS011;11483;55.828;37.488;2023-05-29T08:51:44;1.13;;;1.00;;
22632;SDS011;11483;55.828;37.488;2023-05-29T08:54:15;2.97;;;1.38;;
22632;SDS011;11483;55.828;37.488;2023-05-29T09:08:53;3.70;;;0.95;;
22632;SDS011;11483;55.828;37.488;2023-05-29T09:11:19;3.42;;;1.00;;
22632;SDS011;11483;55.828;37.488;2023-05-29T09:13:46;1.98;;;1.02;;
22632;SDS011;11483;55.828;37.488;2023-05-29T09:16:13;1.80;;;1.00;;
22632;SDS011;11483;55.828;37.488;2023-05-29T09:18:41;4.30;;;0.85;;
22632;SDS011;11483;55.828;37.488;2023-05-29T09:21:13;1.88;;;0.90;;
22632;SDS011;11483;55.828;37.488;2023-05-29T09:23:53;2.83;;;1.25;;
22632;SDS011;11483;55.828;37.488;2023-05-29T09:26:21;1.80;;;1.00;;
22632;SDS011;11483;55.828;37.488;2023-05-29T09:28:48;1.55;;;1.10;;
22632;SDS011;11483;55.828;37.488;2023-05-29T09:31:15;3.87;;;0.90;;
22632;SDS011;11483;55.828;37.488;2023-05-29T09:33:48;2.08;;;0.90;;
22632;SDS011;11483;55.828;37.488;2023-05-29T09:36:21;1.65;;;0.98;;
22632;SDS011;11483;55.828;37.488;2023-05-29T09:38:48;5.35;;;1.00;;
22632;SDS011;11483;55.828;37.488;2023-05-29T09:41:19;1.70;;;0.90;;
22632;SDS011;11483;55.828;37.488;2023-05-29T09:43:48;1.42;;;0.95;;
22632;SDS011;11483;55.828;37.488;2023-05-29T09:46:15;6.53;;;1.17;;
22632;SDS011;11483;55.828;37.488;2023-05-29T09:48:45;2.85;;;0.90;;
22632;SDS011;11483;55.828;37.488;2023-05-29T09:51:21;2.53;;;1.10;;
22632;SDS011;11483;55.828;37.488;2023-05-29T09:53:48;1.35;;;0.90;;
22632;SDS011;11483;55.828;37.488;2023-05-29T09:56:16;0.90;;;0.90;;
22632;SDS011;11483;55.828;37.488;2023-05-29T09:58:43;3.63;;;0.90;;
22632;SDS011;11483;55.828;37.488;2023-05-29T10:01:12;3.10;;;1.00;;
22632;SDS011;11483;55.828;37.488;2023-05-29T10:03:41;1.77;;;1.08;;
22632;SDS011;11483;55.828;37.488;2023-05-29T10:06:07;1.63;;;1.03;;
22632;SDS011;11483;55.828;37.488;2023-05-29T10:08:42;2.80;;;1.00;;
22632;SDS011;11483;55.828;37.488;2023-05-29T10:11:14;2.25;;;1.10;;
22632;SDS011;11483;55.828;37.488;2023-05-29T10:13:49;1.20;;;0.80;;
22632;SDS011;11483;55.828;37.488;2023-05-29T10:16:21;2.75;;;1.00;;
22632;SDS011;11483;55.828;37.488;2023-05-29T10:18:55;3.40;;;1.30;;
22632;SDS011;11483;55.828;37.488;2023-05-29T10:21:24;2.13;;;1.00;;
22632;SDS011;11483;55.828;37.488;2023-05-29T10:23:52;2.30;;;1.00;;
22632;SDS011;11483;55.828;37.488;2023-05-29T10:26:26;2.47;;;0.90;;
22632;SDS011;11483;55.828;37.488;2023-05-29T10:29:03;2.70;;;1.00;;
22632;SDS011;11483;55.828;37.488;2023-05-29T10:40:12;1.52;;;1.10;;
22632;SDS011;11483;55.828;37.488;2023-05-29T10:45:04;1.77;;;1.20;;
22632;SDS011;11483;55.828;37.488;2023-05-29T10:47:30;2.27;;;1.00;;
22632;SDS011;11483;55.828;37.488;2023-05-29T10:49:59;2.67;;;1.08;;
22632;SDS011;11483;55.828;37.488;2023-05-29T10:52:26;2.45;;;1.10;;
22632;SDS011;11483;55.828;37.488;2023-05-29T10:54:59;2.63;;;0.95;;
22632;SDS011;11483;55.828;37.488;2023-05-29T10:57:28;2.67;;;1.10;;
22632;SDS011;11483;55.828;37.488;2023-05-29T10:59:59;1.93;;;1.00;;
22632;SDS011;11483;55.828;37.488;2023-05-29T11:02:32;1.58;;;1.02;;
22632;SDS011;11483;55.828;37.488;2023-05-29T11:05:23;4.22;;;1.30;;
22632;SDS011;11483;55.828;37.488;2023-05-29T11:07:57;2.23;;;1.00;;
22632;SDS011;11483;55.828;37.488;2023-05-29T11:11:29;2.45;;;1.30;;
22632;SDS011;11483;55.828;37.488;2023-05-29T11:13:23;1.63;;;1.02;;
22632;SDS011;11483;55.828;37.488;2023-05-29T11:16:12;1.23;;;1.00;;
22632;SDS011;11483;55.828;37.488;2023-05-29T11:18:46;2.30;;;1.20;;
22632;SDS011;11483;55.828;37.488;2023-05-29T11:23:55;2.88;;;1.00;;
22632;SDS011;11483;55.828;37.488;2023-05-29T11:26:26;2.95;;;0.98;;
22632;SDS011;11483;55.828;37.488;2023-05-29T11:28:52;2.33;;;1.20;;
22632;SDS011;11483;55.828;37.488;2023-05-29T11:31:19;4.77;;;1.23;;
22632;SDS011;11483;55.828;37.488;2023-05-29T11:33:48;1.50;;;1.10;;
22632;SDS011;11483;55.828;37.488;2023-05-29T11:36:17;6.03;;;1.10;;
22632;SDS011;11483;55.828;37.488;2023-05-29T11:38:44;2.90;;;1.03;;
22632;SDS011;11483;55.828;37.488;2023-05-29T11:41:11;1.00;;;0.90;;
22632;SDS011;11483;55.828;37.488;2023-05-29T11:43:37;1.73;;;1.20;;
22632;SDS011;11483;55.828;37.488;2023-05-29T11:46:13;1.63;;;1.17;;
22632;SDS011;11483;55.828;37.488;2023-05-29T11:48:47;1.63;;;0.95;;
22632;SDS011;11483;55.828;37.488;2023-05-29T11:51:13;2.97;;;1.10;;
22632;SDS011;11483;55.828;37.488;2023-05-29T11:53:43;3.17;;;1.30;;
22632;SDS011;11483;55.828;37.488;2023-05-29T11:56:11;1.88;;;1.15;;
22632;SDS011;11483;55.828;37.488;2023-05-29T11:58:38;1.95;;;1.00;;
22632;SDS011;11483;55.828;37.488;2023-05-29T12:01:05;2.78;;;1.20;;
22632;SDS011;11483;55.828;37.488;2023-05-29T12:06:05;2.95;;;1.08;;
22632;SDS011;11483;55.828;37.488;2023-05-29T12:08:31;1.90;;;1.20;;
22632;SDS011;11483;55.828;37.488;2023-05-29T12:10:58;1.50;;;1.13;;
22632;SDS011;11483;55.828;37.488;2023-05-29T12:13:24;1.42;;;1.02;;
22632;SDS011;11483;55.828;37.488;2023-05-29T12:15:51;1.70;;;1.17;;
22632;SDS011;11483;55.828;37.488;2023-05-29T12:18:19;1.30;;;1.10;;
22632;SDS011;11483;55.828;37.488;2023-05-29T12:20:46;1.30;;;1.00;;
22632;SDS011;11483;55.828;37.488;2023-05-29T12:23:12;5.93;;;1.00;;
22632;SDS011;11483;55.828;37.488;2023-05-29T12:25:38;3.42;;;1.13;;
22632;SDS011;11483;55.828;37.488;2023-05-29T12:28:04;1.08;;;0.95;;
22632;SDS011;11483;55.828;37.488;2023-05-29T12:30:30;1.80;;;1.00;;
22632;SDS011;11483;55.828;37.488;2023-05-29T12:33:01;2.30;;;0.90;;
22632;SDS011;11483;55.828;37.488;2023-05-29T12:35:28;2.35;;;1.30;;
22632;SDS011;11483;55.828;37.488;2023-05-29T12:37:59;2.70;;;1.17;;
22632;SDS011;11483;55.828;37.488;2023-05-29T12:40:30;3.92;;;1.13;;
22632;SDS011;11483;55.828;37.488;2023-05-29T12:43:00;1.40;;;1.20;;
22632;SDS011;11483;55.828;37.488;2023-05-29T12:45:31;1.95;;;1.08;;
22632;SDS011;11483;55.828;37.488;2023-05-29T12:48:05;2.90;;;0.87;;
22632;SDS011;11483;55.828;37.488;2023-05-29T12:50:37;2.67;;;1.08;;
22632;SDS011;11483;55.828;37.488;2023-05-29T12:53:04;3.78;;;1.23;;
22632;SDS011;11483;55.828;37.488;2023-05-29T12:55:39;4.68;;;1.25;;
22632;SDS011;11483;55.828;37.488;2023-05-29T12:58:10;2.72;;;1.23;;
22632;SDS011;11483;55.828;37.488;2023-05-29T13:00:41;0.90;;;0.90;;
22632;SDS011;11483;55.828;37.488;2023-05-29T13:03:08;4.22;;;1.15;;
22632;SDS011;11483;55.828;37.488;2023-05-29T13:05:35;3.95;;;1.05;;
22632;SDS011;11483;55.828;37.488;2023-05-29T13:08:02;5.05;;;1.00;;
22632;SDS011;11483;55.828;37.488;2023-05-29T13:10:30;1.20;;;0.95;;
22632;SDS011;11483;55.828;37.488;2023-05-29T13:12:56;1.88;;;0.90;;
22632;SDS011;11483;55.828;37.488;2023-05-29T13:15:24;2.00;;;0.95;;
22632;SDS011;11483;55.828;37.488;2023-05-29T13:17:51;6.78;;;1.13;;
22632;SDS011;11483;55.828;37.488;2023-05-29T13:20:18;1.67;;;0.88;;
22632;SDS011;11483;55.828;37.488;2023-05-29T13:22:45;3.08;;;1.08;;
22632;SDS011;11483;55.828;37.488;2023-05-29T13:25:12;3.00;;;0.80;;
22632;SDS011;11483;55.828;37.488;2023-05-29T13:27:41;2.50;;;1.00;;
22632;SDS011;11483;55.828;37.488;2023-05-29T13:30:09;1.80;;;1.00;;
22632;SDS011;11483;55.828;37.488;2023-05-29T13:32:36;2.80;;;1.10;;
22632;SDS011;11483;55.828;37.488;2023-05-29T13:35:02;1.60;;;1.05;;
22632;SDS011;11483;55.828;37.488;2023-05-29T13:37:28;1.58;;;1.10;;
22632;SDS011;11483;55.828;37.488;2023-05-29T13:39:54;1.40;;;1.08;;
22632;SDS011;11483;55.828;37.488;2023-05-29T13:42:20;2.45;;;1.08;;
22632;SDS011;11483;55.828;37.488;2023-05-29T13:44:47;1.00;;;0.95;;
22632;SDS011;11483;55.828;37.488;2023-05-29T13:47:13;1.85;;;1.10;;
22632;SDS011;11483;55.828;37.488;2023-05-29T13:49:39;1.45;;;0.90;;
22632;SDS011;11483;55.828;37.488;2023-05-29T13:52:06;1.63;;;1.42;;
22632;SDS011;11483;55.828;37.488;2023-05-29T13:54:31;1.00;;;0.90;;
22632;SDS011;11483;55.828;37.488;2023-05-29T13:57:01;1.42;;;0.90;;
22632;SDS011;11483;55.828;37.488;2023-05-29T13:59:28;4.32;;;1.00;;
22632;SDS011;11483;55.828;37.488;2023-05-29T14:01:55;0.80;;;0.80;;
22632;SDS011;11483;55.828;37.488;2023-05-29T14:04:21;2.10;;;1.00;;
22632;SDS011;11483;55.828;37.488;2023-05-29T14:06:47;2.05;;;0.93;;
22632;SDS011;11483;55.828;37.488;2023-05-29T14:09:13;1.90;;;0.90;;
22632;SDS011;11483;55.828;37.488;2023-05-29T14:11:39;4.35;;;1.20;;
22632;SDS011;11483;55.828;37.488;2023-05-29T14:14:05;2.05;;;1.10;;
22632;SDS011;11483;55.828;37.488;2023-05-29T14:16:32;3.40;;;1.13;;
22632;SDS011;11483;55.828;37.488;2023-05-29T14:18:59;3.35;;;1.13;;
22632;SDS011;11483;55.828;37.488;2023-05-29T14:21:25;2.05;;;1.20;;
22632;SDS011;11483;55.828;37.488;2023-05-29T14:23:51;1.63;;;1.10;;
22632;SDS011;11483;55.828;37.488;2023-05-29T14:26:17;1.88;;;1.10;;
22632;SDS011;11483;55.828;37.488;2023-05-29T14:28:43;2.45;;;1.00;;
22632;SDS011;11483;55.828;37.488;2023-05-29T14:31:09;3.83;;;1.10;;
22632;SDS011;11483;55.828;37.488;2023-05-29T14:33:35;3.63;;;1.10;;
22632;SDS011;11483;55.828;37.488;2023-05-29T14:36:04;1.85;;;0.90;;
22632;SDS011;11483;55.828;37.488;2023-05-29T14:38:30;1.52;;;0.90;;
22632;SDS011;11483;55.828;37.488;2023-05-29T14:40:56;6.25;;;1.00;;
22632;SDS011;11483;55.828;37.488;2023-05-29T14:43:21;3.65;;;1.10;;
22632;SDS011;11483;55.828;37.488;2023-05-29T14:45:47;4.78;;;1.58;;
22632;SDS011;11483;55.828;37.488;2023-05-29T14:48:13;2.63;;;1.10;;
22632;SDS011;11483;55.828;37.488;2023-05-29T14:50:41;2.75;;;1.10;;
22632;SDS011;11483;55.828;37.488;2023-05-29T14:53:07;3.10;;;0.80;;
22632;SDS011;11483;55.828;37.488;2023-05-29T14:55:33;1.10;;;0.90;;
22632;SDS011;11483;55.828;37.488;2023-05-29T14:58:05;2.60;;;1.00;;
22632;SDS011;11483;55.828;37.488;2023-05-29T15:00:31;6.63;;;1.33;;
22632;SDS011;11483;55.828;37.488;2023-05-29T15:02:57;4.88;;;1.15;;
22632;SDS011;11483;55.828;37.488;2023-05-29T15:05:27;2.75;;;1.10;;
22632;SDS011;11483;55.828;37.488;2023-05-29T15:07:54;7.78;;;0.88;;
22632;SDS011;11483;55.828;37.488;2023-05-29T15:10:24;1.98;;;1.00;;
22632;SDS011;11483;55.828;37.488;2023-05-29T15:12:51;3.00;;;1.15;;
22632;SDS011;11483;55.828;37.488;2023-05-29T15:15:24;3.90;;;0.90;;
22632;SDS011;11483;55.828;37.488;2023-05-29T15:17:51;6.97;;;1.10;;
22632;SDS011;11483;55.828;37.488;2023-05-29T15:20:24;6.07;;;0.95;;
22632;SDS011;11483;55.828;37.488;2023-05-29T15:22:51;1.42;;;0.98;;
22632;SDS011;11483;55.828;37.488;2023-05-29T15:25:19;4.45;;;1.13;;